createdAt,value
2023-03-18T18:23:33.500Z,14.75
2023-03-18T18:28:39.706Z,15.09
2023-03-18T18:33:50.049Z,15.27
2023-03-18T18:38:55.318Z,15.36
2023-03-18T18:44:00.399Z,15.40
2023-03-18T18:49:08.323Z,15.42
2023-03-18T18:54:14.068Z,15.40
2023-03-18T18:59:27.062Z,15.38
2023-03-18T19:04:35.147Z,15.38
2023-03-18T19:09:40.255Z,15.39
2023-03-18T19:14:45.324Z,15.43
2023-03-18T19:19:53.383Z,15.49
2023-03-18T19:24:58.786Z,15.51
2023-03-18T19:30:06.175Z,15.52
2023-03-18T19:35:16.641Z,15.51
2023-03-18T19:40:29.499Z,15.48
2023-03-18T19:45:35.715Z,15.45
2023-03-18T19:50:44.931Z,15.46
2023-03-18T19:55:52.400Z,15.48
2023-03-18T20:00:58.140Z,15.50
2023-03-18T20:06:05.971Z,15.53
2023-03-18T20:11:15.913Z,15.56
2023-03-18T20:16:22.033Z,15.55
2023-03-18T20:21:32.477Z,15.57
2023-03-18T20:26:37.893Z,15.60
2023-03-18T20:31:43.123Z,15.65
2023-03-18T20:36:50.922Z,15.75
2023-03-18T20:41:56.095Z,15.81
2023-03-18T20:47:01.353Z,15.86
2023-03-18T20:52:09.262Z,15.94
2023-03-18T20:57:15.018Z,15.95
2023-03-18T21:02:38.795Z,16.01
2023-03-18T21:07:47.572Z,15.97
2023-03-18T21:12:52.990Z,16.00
2023-03-18T21:17:58.480Z,16.03
2023-03-18T21:23:06.477Z,16.06
2023-03-18T21:28:13.528Z,16.07
2023-03-18T21:33:22.992Z,16.13
2023-03-18T21:38:31.980Z,16.15
2023-03-18T21:43:38.245Z,16.18
2023-03-18T21:48:43.374Z,16.21
2023-03-18T21:53:52.421Z,16.23
2023-03-18T21:58:57.890Z,16.22
2023-03-18T22:04:03.031Z,16.19
2023-03-18T22:09:10.813Z,16.21
2023-03-18T22:14:16.425Z,16.18
2023-03-18T22:19:21.809Z,16.18
2023-03-18T22:24:29.617Z,16.18
2023-03-18T22:29:34.703Z,16.16
2023-03-18T22:34:39.804Z,16.15
2023-03-18T22:39:47.489Z,16.16
2023-03-18T22:44:52.652Z,16.14
